Time;durP1;ratioP1;P1;durP2;ratioP2;P2;SDS_P1;SDS_P2;PMS_P1;PMS_P2;Temp;Humidity;BMP_temperature;BMP_pressure;BME280_temperature;BME280_humidity;BME280_pressure;Samples;Min_cycle;Max_cycle;Signal;HPM_P1;HPM_P2
2022/01/12 06:12:44;;;;;;;;;;;;;;;2.38;100.00;99612.53;6213295;22;19952;-66
2022/01/12 06:15:15;;;;;;;;;;;;;;;2.35;100.00;99612.31;6222752;23;19952;-67
2022/01/12 06:17:42;;;;;;;;;;;;;;;2.34;99.89;99614.28;6248936;23;19943;-67
2022/01/12 06:20:10;;;;;;;;;;;;;;;2.28;100.00;99610.00;6222188;23;19953;-67
2022/01/12 06:23:03;;;;;;;;;;;;;;;2.32;99.45;99619.31;6203794;23;19955;-67
2022/01/12 06:25:32;;;;;;;;;;;;;;;2.41;97.75;99624.88;6222478;23;19949;-67
2022/01/12 06:28:21;;;;;;;;;;;;;;;2.40;97.68;99628.75;6248837;23;19979;-67
2022/01/12 06:33:33;;;;;;;;;;;;;;;2.42;97.80;99632.06;6232896;23;19948;-67
2022/01/12 06:36:00;;;;;;;;;;;;;;;2.37;97.98;99634.94;6246602;23;19977;-67
2022/01/12 06:38:28;;;;;;;;;;;;;;;2.35;97.13;99640.75;6221761;23;19950;-67
2022/01/12 06:40:55;;;;;;;;;;;;;;;2.35;96.69;99640.75;6223628;23;19940;-67
2022/01/12 06:43:23;;;;;;;;;;;;;;;2.31;97.46;99636.16;6247841;23;19944;-67
2022/01/12 06:45:50;;;;;;;;;;;;;;;2.36;96.84;99647.91;6222068;23;20579;-67
2022/01/12 06:48:18;;;;;;;;;;;;;;;2.43;97.01;99661.28;6222883;23;19955;-67
2022/01/12 06:50:46;;;;;;;;;;;;;;;2.48;95.91;99669.44;6222569;23;20305;-68
2022/01/12 06:53:13;;;;;;;;;;;;;;;2.47;96.42;99678.88;6222795;23;19958;-67
2022/01/12 06:55:40;;;;;;;;;;;;;;;2.49;96.89;99679.38;6223390;23;19972;-67
2022/01/12 06:58:08;;;;;;;;;;;;;;;2.54;95.70;99673.72;6248633;23;19955;-67
2022/01/12 07:00:35;;;;;;;;;;;;;;;2.56;96.63;99679.75;6249963;23;19959;-67
2022/01/12 07:03:04;;;;;;;;;;;;;;;2.57;96.18;99690.47;6222190;23;19940;-67
2022/01/12 07:05:39;;;;;;;;;;;;;;;2.61;95.85;99693.44;6231632;23;19943;-67
2022/01/12 07:08:06;;;;;;;;;;;;;;;2.53;96.83;99696.94;6197094;23;19954;-67
2022/01/12 07:10:38;;;;;;;;;;;;;;;2.50;97.27;99708.59;6221979;23;19974;-67
2022/01/12 07:13:20;;;;;;;;;;;;;;;2.36;100.00;99705.06;6221955;23;20359;-67
2022/01/12 07:15:49;;;;;;;;;;;;;;;2.26;100.00;99713.56;6223212;23;19944;-67
2022/01/12 07:18:25;;;;;;;;;;;;;;;2.13;100.00;99722.69;6221895;23;19948;-67
2022/01/12 07:20:52;;;;;;;;;;;;;;;2.00;100.00;99733.38;6222172;23;19946;-68
2022/01/12 07:23:20;;;;;;;;;;;;;;;1.95;100.00;99736.28;6248532;23;19981;-68
2022/01/12 07:25:47;;;;;;;;;;;;;;;1.86;100.00;99731.75;6248225;23;19955;-67
2022/01/12 07:28:15;;;;;;;;;;;;;;;1.79;100.00;99743.19;6248437;23;19949;-68
2022/01/12 07:30:42;;;;;;;;;;;;;;;1.99;100.00;99748.31;6248375;23;19952;-68
2022/01/12 07:33:10;;;;;;;;;;;;;;;2.34;100.00;99745.94;6248609;23;19939;-68
2022/01/12 07:35:38;;;;;;;;;;;;;;;3.24;100.00;99752.13;6246710;23;20334;-68
2022/01/12 07:38:06;;;;;;;;;;;;;;;4.62;100.00;99754.34;6245951;23;20249;-67
2022/01/12 07:40:35;;;;;;;;;;;;;;;6.24;100.00;99769.19;6246394;23;19941;-67
2022/01/12 07:43:03;;;;;;;;;;;;;;;8.14;85.56;99781.22;6247030;23;20633;-68
2022/01/12 07:45:30;;;;;;;;;;;;;;;10.06;71.71;99781.16;6244863;23;19945;-68
2022/01/12 07:47:58;;;;;;;;;;;;;;;11.46;59.81;99785.81;6246741;23;19962;-68
2022/01/12 07:50:26;;;;;;;;;;;;;;;13.01;52.72;99799.09;6246529;23;19942;-68
2022/01/12 07:52:53;;;;;;;;;;;;;;;14.12;46.71;99805.81;6247025;23;20198;-68
2022/01/12 07:55:21;;;;;;;;;;;;;;;15.45;43.43;99809.03;6246928;23;19943;-68
2022/01/12 07:57:49;;;;;;;;;;;;;;;16.33;40.53;99806.56;6247483;23;19960;-68
2022/01/12 08:00:18;;;;;;;;;;;;;;;17.02;37.09;99820.38;6246691;23;20181;-68
2022/01/12 08:02:45;;;;;;;;;;;;;;;17.13;35.71;99826.84;6248076;23;19945;-69
2022/01/12 08:05:13;;;;;;;;;;;;;;;18.83;32.77;99824.97;6244994;23;19953;-69
2022/01/12 08:07:40;;;;;;;;;;;;;;;19.89;30.25;99834.50;6244870;23;19944;-69
2022/01/12 08:10:08;;;;;;;;;;;;;;;20.57;29.43;99835.25;6247413;23;19941;-69
2022/01/12 08:12:37;;;;;;;;;;;;;;;21.47;27.59;99843.53;6246705;23;19972;-68
2022/01/12 08:15:05;;;;;;;;;;;;;;;22.10;26.55;99850.09;6247002;23;19942;-68
2022/01/12 08:17:32;;;;;;;;;;;;;;;22.85;25.50;99852.13;6246140;23;19962;-68
2022/01/12 08:20:01;;;;;;;;;;;;;;;23.76;24.53;99854.72;6241485;23;19947;-68
2022/01/12 08:22:28;;;;;;;;;;;;;;;24.38;23.28;99855.44;6246180;23;19947;-69
2022/01/12 08:24:56;;;;;;;;;;;;;;;24.98;22.55;99865.84;6246959;23;19947;-69
2022/01/12 08:27:23;;;;;;;;;;;;;;;25.30;21.52;99868.47;6246209;23;19997;-69
2022/01/12 08:29:58;;;;;;;;;;;;;;;25.54;21.20;99874.63;6246819;23;19948;-69
2022/01/12 08:32:25;;;;;;;;;;;;;;;25.09;21.21;99883.47;6246730;23;19944;-68
2022/01/12 08:34:53;;;;;;;;;;;;;;;23.83;22.59;99873.72;6243814;23;19972;-69
2022/01/12 08:37:20;;;;;;;;;;;;;;;22.12;24.14;99875.31;6245073;23;19956;-68
2022/01/12 08:39:47;;;;;;;;;;;;;;;20.82;25.54;99873.47;6246400;23;19941;-69
2022/01/12 08:42:15;;;;;;;;;;;;;;;19.90;26.94;99867.34;6246113;23;19949;-68
2022/01/12 08:44:45;;;;;;;;;;;;;;;18.71;28.01;99867.97;6247100;23;19936;-68
2022/01/12 08:47:13;;;;;;;;;;;;;;;17.95;29.23;99872.78;6247288;23;19948;-68
2022/01/12 08:49:40;;;;;;;;;;;;;;;17.68;29.71;99881.72;6247174;23;19938;-68
2022/01/12 08:52:09;;;;;;;;;;;;;;;16.58;31.17;99885.69;6248346;23;20321;-68
2022/01/12 08:54:39;;;;;;;;;;;;;;;15.93;31.79;99883.03;6220656;23;19947;-68
2022/01/12 08:57:06;;;;;;;;;;;;;;;14.08;33.89;99880.94;6246216;23;19966;-68
2022/01/12 08:59:34;;;;;;;;;;;;;;;13.39;36.34;99879.56;6248213;23;19947;-68
2022/01/12 09:02:01;;;;;;;;;;;;;;;12.44;39.09;99887.13;6246758;23;19944;-68
2022/01/12 09:04:29;;;;;;;;;;;;;;;11.81;41.39;99890.25;6246500;23;19945;-68
2022/01/12 09:06:57;;;;;;;;;;;;;;;11.19;44.13;99882.00;6221714;23;19949;-68
2022/01/12 09:09:25;;;;;;;;;;;;;;;10.64;45.21;99893.41;6246230;23;19947;-68
2022/01/12 09:11:53;;;;;;;;;;;;;;;10.26;47.13;99886.38;6247097;23;19952;-68
2022/01/12 09:14:20;;;;;;;;;;;;;;;9.86;48.90;99886.41;6246225;23;19973;-68
2022/01/12 09:16:54;;;;;;;;;;;;;;;9.56;50.84;99898.25;6248090;23;20351;-67
2022/01/12 09:19:22;;;;;;;;;;;;;;;9.42;52.71;99909.78;6246993;23;19944;-68
2022/01/12 09:21:50;;;;;;;;;;;;;;;9.27;54.02;99912.50;6246425;23;19967;-68
2022/01/12 09:24:17;;;;;;;;;;;;;;;9.11;55.75;99904.00;6246575;23;19938;-68
2022/01/12 09:26:45;;;;;;;;;;;;;;;8.95;56.96;99917.03;6246470;23;19944;-68
2022/01/12 09:29:12;;;;;;;;;;;;;;;8.67;58.35;99918.84;6248043;23;20273;-68
2022/01/12 09:31:39;;;;;;;;;;;;;;;8.58;58.13;99914.16;6246854;23;20212;-67
2022/01/12 09:34:07;;;;;;;;;;;;;;;8.63;59.12;99909.53;6247881;23;19955;-67
2022/01/12 09:36:34;;;;;;;;;;;;;;;8.59;59.06;99921.38;6247499;23;20346;-68
2022/01/12 09:39:02;;;;;;;;;;;;;;;8.53;59.89;99916.38;6247862;23;20279;-68
2022/01/12 09:41:29;;;;;;;;;;;;;;;8.55;60.07;99928.00;6247236;23;19949;-67
2022/01/12 09:43:57;;;;;;;;;;;;;;;8.58;58.13;99930.09;6246612;23;19943;-67
2022/01/12 09:46:28;;;;;;;;;;;;;;;8.56;57.82;99937.97;6245948;23;20673;-67
2022/01/12 09:48:56;;;;;;;;;;;;;;;8.54;57.34;99937.50;6246898;23;19949;-68
2022/01/12 09:51:23;;;;;;;;;;;;;;;8.50;56.79;99940.19;6246612;23;20011;-67
2022/01/12 09:53:51;;;;;;;;;;;;;;;8.51;56.97;99933.44;6246220;23;19950;-68
2022/01/12 09:56:23;;;;;;;;;;;;;;;8.49;57.37;99927.41;6248380;23;19944;-67
2022/01/12 09:58:57;;;;;;;;;;;;;;;8.52;57.62;99920.31;6222599;23;19969;-67
2022/01/12 10:01:27;;;;;;;;;;;;;;;8.44;58.47;99924.81;6248075;23;19955;-67
2022/01/12 10:04:04;;;;;;;;;;;;;;;8.43;59.14;99912.06;6247733;23;19950;-67
2022/01/12 10:06:34;;;;;;;;;;;;;;;8.32;59.65;99910.84;6247782;23;19945;-68
2022/01/12 10:09:02;;;;;;;;;;;;;;;8.54;56.76;99904.88;6221342;23;19948;-68
2022/01/12 10:11:29;;;;;;;;;;;;;;;8.32;59.65;99908.06;6249579;23;19941;-68
2022/01/12 10:13:57;;;;;;;;;;;;;;;8.58;59.17;99902.22;6222036;23;19962;-68
2022/01/12 10:16:26;;;;;;;;;;;;;;;8.70;59.75;99912.56;6247204;23;19945;-68
2022/01/12 10:18:57;;;;;;;;;;;;;;;8.81;60.04;99906.19;6247184;23;19959;-68
2022/01/12 10:21:35;;;;;;;;;;;;;;;9.00;60.02;99905.59;6247950;23;19933;-74
2022/01/12 10:24:04;;;;;;;;;;;;;;;9.13;59.51;99896.09;6248055;23;19970;-69
2022/01/12 10:26:45;;;;;;;;;;;;;;;8.96;59.91;99891.56;6248848;23;19949;-69
2022/01/12 10:29:18;;;;;;;;;;;;;;;8.99;60.45;99884.47;6232858;23;19947;-69
2022/01/12 10:31:45;;;;;;;;;;;;;;;8.78;60.28;99881.00;6247852;23;19980;-69
2022/01/12 10:34:17;;;;;;;;;;;;;;;8.68;60.67;99873.88;6247996;23;19971;-69
2022/01/12 10:36:45;;;;;;;;;;;;;;;8.80;60.21;99879.47;6247512;23;20045;-69
2022/01/12 10:39:13;;;;;;;;;;;;;;;8.91;59.65;99877.84;6247899;23;19970;-69
2022/01/12 10:41:51;;;;;;;;;;;;;;;9.19;58.03;99883.53;6246935;23;19948;-69
2022/01/12 10:44:22;;;;;;;;;;;;;;;9.11;59.29;99885.28;6247593;23;19946;-70
2022/01/12 10:47:01;;;;;;;;;;;;;;;9.27;57.80;99893.75;6247907;23;20494;-68
2022/01/12 10:49:30;;;;;;;;;;;;;;;8.77;61.22;99873.75;6248260;23;20169;-69
2022/01/12 10:51:57;;;;;;;;;;;;;;;8.85;62.53;99870.06;6248184;23;19953;-69
2022/01/12 10:54:25;;;;;;;;;;;;;;;8.86;64.72;99878.06;6247423;23;19953;-69
2022/01/12 10:56:52;;;;;;;;;;;;;;;8.65;67.88;99873.75;6247386;23;19982;-69
2022/01/12 10:59:20;;;;;;;;;;;;;;;8.82;69.50;99867.97;6246764;23;19966;-69
2022/01/12 11:01:48;;;;;;;;;;;;;;;8.64;71.62;99875.72;6246069;23;19950;-69
2022/01/12 11:04:16;;;;;;;;;;;;;;;8.34;72.25;99875.09;6246437;23;19942;-69
2022/01/12 11:06:44;;;;;;;;;;;;;;;8.13;73.85;99879.88;6247724;23;19954;-69
2022/01/12 11:09:12;;;;;;;;;;;;;;;8.31;73.65;99867.44;6247748;23;19944;-69
2022/01/12 11:11:40;;;;;;;;;;;;;;;8.18;76.65;99862.13;6247959;23;19955;-69
2022/01/12 11:14:08;;;;;;;;;;;;;;;7.94;77.18;99865.66;6247525;23;19967;-69
2022/01/12 11:16:36;;;;;;;;;;;;;;;7.69;79.34;99855.56;6221449;23;19957;-69
2022/01/12 11:19:06;;;;;;;;;;;;;;;7.93;76.03;99858.44;6247845;23;20380;-69
2022/01/12 11:21:41;;;;;;;;;;;;;;;7.75;75.92;99854.22;6247763;23;20224;-69
2022/01/12 11:24:13;;;;;;;;;;;;;;;7.73;74.75;99848.16;6247482;23;19943;-69
2022/01/12 11:26:48;;;;;;;;;;;;;;;7.83;71.86;99854.13;6247522;23;19952;-69
2022/01/12 11:29:25;;;;;;;;;;;;;;;8.00;73.52;99858.72;6247813;23;19951;-69
2022/01/12 11:32:03;;;;;;;;;;;;;;;7.78;70.45;99859.09;6248185;23;19946;-69
2022/01/12 11:34:30;;;;;;;;;;;;;;;7.99;74.95;99865.44;6257507;23;19943;-69
2022/01/12 11:36:58;;;;;;;;;;;;;;;7.95;79.03;99856.13;6247924;23;19942;-69
2022/01/12 11:39:30;;;;;;;;;;;;;;;7.73;74.73;99853.72;6246724;23;19968;-69
2022/01/12 11:41:59;;;;;;;;;;;;;;;7.45;77.40;99844.31;6248289;23;19945;-69
2022/01/12 11:44:28;;;;;;;;;;;;;;;7.35;71.11;99851.09;6247399;23;19954;-69
2022/01/12 11:46:57;;;;;;;;;;;;;;;7.54;72.44;99854.22;6247479;23;20189;-69
2022/01/12 11:49:30;;;;;;;;;;;;;;;7.48;68.78;99852.00;6247853;23;20139;-69
2022/01/12 11:52:12;;;;;;;;;;;;;;;7.25;74.73;99866.22;6247457;23;19943;-69
2022/01/12 11:54:45;;;;;;;;;;;;;;;7.35;74.85;99853.06;6247441;23;20198;-69
2022/01/12 11:57:18;;;;;;;;;;;;;;;7.44;76.03;99862.16;6247523;23;19944;-69
2022/01/12 11:59:54;;;;;;;;;;;;;;;7.27;75.27;99869.47;6246993;23;19964;-69
2022/01/12 12:02:47;;;;;;;;;;;;;;;7.17;78.61;99869.06;6246873;23;20473;-69
2022/01/12 12:05:15;;;;;;;;;;;;;;;7.19;80.77;99873.13;6242067;23;20224;-69
2022/01/12 12:07:44;;;;;;;;;;;;;;;6.95;81.42;99872.97;6247854;23;19956;-69
2022/01/12 12:10:12;;;;;;;;;;;;;;;7.02;84.54;99869.63;6247268;23;19948;-69
2022/01/12 12:12:40;;;;;;;;;;;;;;;7.12;84.69;99874.81;6246879;23;19951;-69
2022/01/12 12:15:08;;;;;;;;;;;;;;;7.05;83.53;99869.78;6246515;23;19969;-69
2022/01/12 12:17:37;;;;;;;;;;;;;;;7.01;76.36;99870.81;6247487;23;19960;-69
2022/01/12 12:20:07;;;;;;;;;;;;;;;6.94;76.81;99863.00;6246579;23;19970;-69
2022/01/12 12:22:38;;;;;;;;;;;;;;;6.76;82.60;99860.63;6247328;23;19946;-69
2022/01/12 12:25:09;;;;;;;;;;;;;;;6.96;86.11;99848.75;6247102;23;19951;-69
2022/01/12 12:27:41;;;;;;;;;;;;;;;6.87;83.86;99846.00;6246942;23;21475;-69
2022/01/12 12:30:13;;;;;;;;;;;;;;;6.71;84.32;99844.97;6246983;23;19953;-68
2022/01/12 12:32:41;;;;;;;;;;;;;;;6.97;86.54;99847.63;6247353;23;19954;-68
2022/01/12 12:35:13;;;;;;;;;;;;;;;7.00;85.01;99846.91;6246703;23;19947;-69
2022/01/12 12:37:44;;;;;;;;;;;;;;;6.81;90.57;99852.94;6246957;23;20195;-69
2022/01/12 12:40:12;;;;;;;;;;;;;;;6.58;86.78;99859.88;6258164;23;19963;-69
2022/01/12 12:42:39;;;;;;;;;;;;;;;6.53;87.62;99857.28;6246209;23;19944;-69
2022/01/12 12:45:08;;;;;;;;;;;;;;;6.57;90.69;99856.31;6247792;23;20207;-69
2022/01/12 12:47:35;;;;;;;;;;;;;;;6.59;89.17;99848.47;6246669;23;19953;-69
2022/01/12 12:50:06;;;;;;;;;;;;;;;6.67;91.38;99844.00;6246122;23;19952;-69
2022/01/12 12:52:35;;;;;;;;;;;;;;;6.51;89.31;99829.84;6247984;23;19942;-69
2022/01/12 12:55:04;;;;;;;;;;;;;;;6.51;90.79;99835.41;6247785;23;20323;-69
2022/01/12 12:57:32;;;;;;;;;;;;;;;6.34;94.39;99823.53;6246464;23;19956;-69
2022/01/12 13:00:06;;;;;;;;;;;;;;;6.53;94.24;99818.38;6220302;23;20466;-69
2022/01/12 13:02:34;;;;;;;;;;;;;;;6.63;94.25;99808.88;6246815;23;19947;-69
2022/01/12 13:05:06;;;;;;;;;;;;;;;6.63;88.53;99813.28;6246371;23;20252;-69
2022/01/12 13:07:37;;;;;;;;;;;;;;;6.50;92.79;99807.97;6247479;23;20183;-69
2022/01/12 13:10:05;;;;;;;;;;;;;;;6.44;90.06;99803.72;6246846;23;19945;-69
2022/01/12 13:12:37;;;;;;;;;;;;;;;6.45;87.45;99797.03;6246369;23;19953;-69
2022/01/12 13:15:07;;;;;;;;;;;;;;;6.56;88.90;99798.28;6257418;23;19940;-69
2022/01/12 13:17:37;;;;;;;;;;;;;;;6.65;93.20;99799.06;6245862;23;19953;-69
2022/01/12 13:22:37;;;;;;;;;;;;;;;6.58;85.02;99793.19;6245652;23;20237;-69
2022/01/12 13:25:07;;;;;;;;;;;;;;;6.47;82.95;99797.50;6245637;23;19955;-69
2022/01/12 13:27:35;;;;;;;;;;;;;;;6.41;81.00;99787.72;6246052;23;20179;-69
2022/01/12 13:30:03;;;;;;;;;;;;;;;6.52;82.30;99789.00;6248074;23;19951;-69
2022/01/12 13:32:31;;;;;;;;;;;;;;;6.51;83.20;99788.16;6248510;23;19952;-68
2022/01/12 13:35:00;;;;;;;;;;;;;;;6.24;83.99;99780.28;6248682;23;19960;-68
2022/01/12 13:37:28;;;;;;;;;;;;;;;6.27;88.16;99776.84;6248672;23;19940;-69
2022/01/12 13:40:22;;;;;;;;;;;;;;;6.49;84.50;99784.09;6248541;23;20256;-69
2022/01/12 13:42:49;;;;;;;;;;;;;;;6.33;79.88;99775.50;6243669;23;19953;-69
2022/01/12 13:45:21;;;;;;;;;;;;;;;6.28;72.22;99777.66;6248291;23;19945;-69
2022/01/12 13:47:53;;;;;;;;;;;;;;;6.27;71.53;99767.69;6247967;23;19949;-68
2022/01/12 13:50:26;;;;;;;;;;;;;;;6.34;69.36;99771.59;6248582;23;19944;-68
2022/01/12 13:52:54;;;;;;;;;;;;;;;6.15;71.83;99773.13;6248453;23;20213;-68
2022/01/12 13:55:21;;;;;;;;;;;;;;;6.01;68.56;99778.91;6247932;23;19953;-68
2022/01/12 13:58:04;;;;;;;;;;;;;;;6.02;60.05;99779.72;6248608;23;20128;-68
2022/01/12 14:00:34;;;;;;;;;;;;;;;6.21;57.91;99777.38;6247896;23;19967;-68
2022/01/12 14:03:13;;;;;;;;;;;;;;;6.15;53.07;99776.75;6249360;23;20212;-68
2022/01/12 14:05:41;;;;;;;;;;;;;;;6.03;54.94;99768.28;6247740;23;19950;-68
2022/01/12 14:08:14;;;;;;;;;;;;;;;6.06;56.88;99773.19;6248404;23;19950;-68
2022/01/12 14:10:45;;;;;;;;;;;;;;;6.19;57.41;99768.53;6248179;23;20398;-68
2022/01/12 14:13:12;;;;;;;;;;;;;;;6.15;55.42;99759.25;6247728;23;19974;-68
2022/01/12 14:15:40;;;;;;;;;;;;;;;6.13;56.83;99773.50;6247906;23;19960;-68
2022/01/12 14:18:16;;;;;;;;;;;;;;;6.09;57.73;99766.16;6247454;23;19944;-68
2022/01/12 14:20:45;;;;;;;;;;;;;;;6.00;57.84;99770.91;6247401;23;20031;-68
2022/01/12 14:23:15;;;;;;;;;;;;;;;5.93;56.60;99772.25;6248987;23;19956;-68
2022/01/12 14:25:42;;;;;;;;;;;;;;;5.93;57.45;99775.03;6247053;23;19947;-68
2022/01/12 14:28:11;;;;;;;;;;;;;;;5.99;56.90;99772.88;6247268;23;20410;-68
2022/01/12 14:30:41;;;;;;;;;;;;;;;5.87;58.58;99767.19;6247675;23;19946;-68
2022/01/12 14:33:09;;;;;;;;;;;;;;;5.76;57.80;99766.72;6247961;23;19955;-68
2022/01/12 14:35:37;;;;;;;;;;;;;;;5.83;56.04;99775.34;6247663;23;19959;-68
2022/01/12 14:38:05;;;;;;;;;;;;;;;5.79;56.44;99779.13;6248968;23;19950;-68
2022/01/12 14:40:34;;;;;;;;;;;;;;;5.72;54.10;99767.72;6246565;23;19976;-68
2022/01/12 14:43:04;;;;;;;;;;;;;;;5.66;55.78;99775.38;6247510;23;19953;-68
2022/01/12 14:45:34;;;;;;;;;;;;;;;5.61;54.70;99777.50;6247472;23;19952;-68
2022/01/12 14:48:04;;;;;;;;;;;;;;;5.61;53.99;99775.56;6247576;23;19946;-68
2022/01/12 14:50:33;;;;;;;;;;;;;;;5.46;55.09;99766.91;6247895;23;19939;-68
2022/01/12 14:53:03;;;;;;;;;;;;;;;5.55;55.09;99768.53;6247013;23;19946;-68
2022/01/12 14:55:46;;;;;;;;;;;;;;;5.58;56.17;99769.84;6247648;23;20217;-68
2022/01/12 14:58:17;;;;;;;;;;;;;;;5.48;58.47;99764.66;6258837;23;19939;-68
2022/01/12 15:00:44;;;;;;;;;;;;;;;5.41;63.63;99756.00;6248761;23;19955;-68
2022/01/12 15:03:12;;;;;;;;;;;;;;;5.38;78.55;99754.69;6247781;23;19945;-68
2022/01/12 15:05:40;;;;;;;;;;;;;;;5.32;83.91;99745.75;6246932;23;20237;-68
2022/01/12 15:08:08;;;;;;;;;;;;;;;5.25;85.24;99759.28;6247567;23;19962;-68
2022/01/12 15:10:35;;;;;;;;;;;;;;;5.25;83.93;99750.16;6247774;23;19948;-69
2022/01/12 15:15:43;;;;;;;;;;;;;;;5.29;77.32;99767.75;6246194;23;19951;-68
2022/01/12 15:18:11;;;;;;;;;;;;;;;5.17;78.79;99771.19;6247222;23;19938;-68
2022/01/12 15:20:38;;;;;;;;;;;;;;;5.12;76.36;99768.59;6247503;23;19976;-68
2022/01/12 15:23:06;;;;;;;;;;;;;;;5.00;76.31;99767.59;6248705;23;19951;-68
2022/01/12 15:25:33;;;;;;;;;;;;;;;5.08;78.68;99780.66;6247012;23;19948;-68
2022/01/12 15:28:06;;;;;;;;;;;;;;;5.04;80.64;99776.88;6247284;23;19942;-68
2022/01/12 15:30:34;;;;;;;;;;;;;;;4.96;87.32;99777.72;6258190;23;19946;-68
2022/01/12 15:33:02;;;;;;;;;;;;;;;4.89;88.20;99769.88;6246832;23;20474;-68
2022/01/12 15:35:30;;;;;;;;;;;;;;;4.90;89.54;99779.81;6248263;23;19947;-68
2022/01/12 15:37:58;;;;;;;;;;;;;;;4.78;91.71;99778.81;6246875;23;20145;-68
2022/01/12 15:40:26;;;;;;;;;;;;;;;4.73;92.44;99785.34;6247720;23;19960;-68
2022/01/12 15:42:53;;;;;;;;;;;;;;;4.81;92.26;99781.78;6247459;23;19957;-68
2022/01/12 15:45:21;;;;;;;;;;;;;;;4.77;93.56;99785.53;6248025;23;20588;-68
2022/01/12 15:47:48;;;;;;;;;;;;;;;4.59;95.36;99792.97;6246927;23;19954;-68
2022/01/12 15:50:16;;;;;;;;;;;;;;;4.61;95.16;99805.38;6247644;23;19949;-68
2022/01/12 15:52:43;;;;;;;;;;;;;;;4.47;96.51;99801.09;6247059;23;20243;-68
2022/01/12 15:55:11;;;;;;;;;;;;;;;4.42;97.15;99802.06;6246675;23;19949;-68
2022/01/12 15:57:38;;;;;;;;;;;;;;;4.32;97.76;99809.84;6247002;23;19945;-68
2022/01/12 16:00:06;;;;;;;;;;;;;;;4.26;98.48;99813.88;6246723;23;19970;-68
2022/01/12 16:02:34;;;;;;;;;;;;;;;4.12;99.51;99808.44;6247420;23;19970;-68
2022/01/12 16:05:02;;;;;;;;;;;;;;;4.15;99.24;99809.75;6246156;23;20211;-68
2022/01/12 16:07:29;;;;;;;;;;;;;;;4.10;99.07;99821.78;6247013;23;20329;-68
2022/01/12 16:09:57;;;;;;;;;;;;;;;4.09;98.92;99814.63;6246705;23;20290;-68
2022/01/12 16:12:24;;;;;;;;;;;;;;;3.92;100.00;99817.28;6246014;23;19954;-68
2022/01/12 16:15:12;;;;;;;;;;;;;;;3.91;99.16;99818.44;6246064;23;20321;-68
2022/01/12 16:17:45;;;;;;;;;;;;;;;3.80;100.00;99817.88;6246782;23;19949;-69
2022/01/12 16:20:13;;;;;;;;;;;;;;;3.81;100.00;99822.28;6245846;23;19967;-68
2022/01/12 16:22:42;;;;;;;;;;;;;;;3.81;99.40;99824.25;6246722;23;19965;-68
2022/01/12 16:25:09;;;;;;;;;;;;;;;3.85;98.32;99833.53;6246205;23;19954;-68
2022/01/12 16:27:37;;;;;;;;;;;;;;;3.75;98.97;99825.50;6246994;23;20207;-68
2022/01/12 16:30:16;;;;;;;;;;;;;;;3.62;99.71;99827.19;6246406;23;19950;-69
2022/01/12 16:32:44;;;;;;;;;;;;;;;3.66;100.00;99835.69;6246837;23;19943;-68
2022/01/12 16:35:12;;;;;;;;;;;;;;;3.62;98.58;99852.09;6245661;23;20320;-68
2022/01/12 16:37:39;;;;;;;;;;;;;;;3.55;98.58;99845.34;6246672;23;19944;-68
2022/01/12 16:40:07;;;;;;;;;;;;;;;3.57;96.62;99854.19;6247914;23;19960;-68
2022/01/12 16:42:34;;;;;;;;;;;;;;;3.67;93.67;99860.25;6246107;23;19949;-68
2022/01/12 16:45:02;;;;;;;;;;;;;;;3.62;94.12;99865.91;6245920;23;19946;-68
2022/01/12 16:47:35;;;;;;;;;;;;;;;3.60;95.18;99873.72;6246505;23;20187;-68
2022/01/12 16:50:04;;;;;;;;;;;;;;;3.63;95.39;99872.28;6246197;23;19944;-68
2022/01/12 16:52:31;;;;;;;;;;;;;;;3.69;95.75;99884.84;6244574;23;20350;-68
2022/01/12 16:54:58;;;;;;;;;;;;;;;3.70;95.72;99886.47;6247200;23;20295;-68
2022/01/12 16:57:26;;;;;;;;;;;;;;;3.69;96.26;99890.41;6246611;23;19950;-68
2022/01/12 16:59:53;;;;;;;;;;;;;;;3.63;96.72;99898.00;6246240;23;19947;-68
2022/01/12 17:02:21;;;;;;;;;;;;;;;3.53;97.02;99891.88;6246723;23;19953;-68
2022/01/12 17:04:48;;;;;;;;;;;;;;;3.38;97.83;99893.03;6247686;23;19949;-68
2022/01/12 17:07:17;;;;;;;;;;;;;;;3.24;100.00;99882.03;6248868;23;19946;-68
2022/01/12 17:09:44;;;;;;;;;;;;;;;3.13;100.00;99875.09;6248459;23;19940;-69
2022/01/12 17:12:11;;;;;;;;;;;;;;;3.18;100.00;99879.69;6249660;23;19948;-68
2022/01/12 17:14:39;;;;;;;;;;;;;;;3.11;100.00;99885.66;6249170;23;19972;-68
2022/01/12 17:17:08;;;;;;;;;;;;;;;3.12;100.00;99878.19;6248704;23;20036;-68
2022/01/12 17:19:37;;;;;;;;;;;;;;;3.14;100.00;99879.50;6248837;23;19949;-68
2022/01/12 17:22:21;;;;;;;;;;;;;;;3.07;100.00;99867.25;6248210;23;19971;-68
2022/01/12 17:25:01;;;;;;;;;;;;;;;3.01;100.00;99874.81;6247818;23;19942;-68
2022/01/12 17:27:28;;;;;;;;;;;;;;;3.12;100.00;99873.47;6248077;23;19947;-68
2022/01/12 17:29:56;;;;;;;;;;;;;;;3.17;100.00;99870.59;6248731;23;19976;-68
2022/01/12 17:32:27;;;;;;;;;;;;;;;3.16;100.00;99868.13;6248360;23;19956;-68
2022/01/12 17:34:55;;;;;;;;;;;;;;;3.11;100.00;99874.59;6249065;23;19948;-68
2022/01/12 17:37:23;;;;;;;;;;;;;;;3.13;100.00;99869.56;6248755;23;19942;-68
2022/01/12 17:39:53;;;;;;;;;;;;;;;3.05;100.00;99878.63;6247969;23;20297;-68
2022/01/12 18:29:32;;;;;;;;;;;;;;;3.10;68.71;99895.09;6154919;23;19953;-70
2022/01/12 18:31:59;;;;;;;;;;;;;;;3.18;60.79;99888.78;6156735;23;19948;-69
2022/01/12 18:34:28;;;;;;;;;;;;;;;3.25;54.17;99891.94;6157898;23;19947;-69
2022/01/12 18:37:01;;;;;;;;;;;;;;;3.29;55.11;99887.47;6157393;23;19944;-68
2022/01/12 18:39:33;;;;;;;;;;;;;;;3.38;51.67;99892.22;6157440;23;19950;-69
2022/01/12 18:42:05;;;;;;;;;;;;;;;3.49;45.35;99899.16;6157121;23;19964;-69
2022/01/12 18:44:32;;;;;;;;;;;;;;;3.54;46.96;99901.81;6157039;23;20196;-69
2022/01/12 18:46:59;;;;;;;;;;;;;;;3.56;50.29;99905.91;6158558;23;20307;-69
2022/01/12 18:49:28;;;;;;;;;;;;;;;3.64;43.42;99913.47;6156791;23;20208;-69
2022/01/12 18:51:56;;;;;;;;;;;;;;;3.67;51.18;99912.81;6157869;23;19961;-69
2022/01/12 18:54:23;;;;;;;;;;;;;;;3.72;47.50;99926.53;6157517;23;20288;-69
2022/01/12 18:56:50;;;;;;;;;;;;;;;3.71;49.20;99924.09;6157341;23;19949;-68
2022/01/12 18:59:18;;;;;;;;;;;;;;;3.75;44.82;99928.66;6157016;23;19946;-69
2022/01/12 19:01:45;;;;;;;;;;;;;;;3.83;46.67;99921.56;6156725;23;19973;-69
2022/01/12 19:04:13;;;;;;;;;;;;;;;3.79;52.80;99921.38;6157256;23;19951;-69
2022/01/12 19:06:43;;;;;;;;;;;;;;;3.81;47.91;99927.44;6157622;23;19941;-69
2022/01/12 19:09:12;;;;;;;;;;;;;;;3.76;53.54;99935.84;6157483;23;19956;-69
2022/01/12 19:11:41;;;;;;;;;;;;;;;3.75;51.67;99936.16;6157300;23;20019;-69
2022/01/12 19:14:10;;;;;;;;;;;;;;;3.76;55.14;99932.25;6157577;23;20279;-69
2022/01/12 19:16:39;;;;;;;;;;;;;;;3.67;60.01;99931.34;6157100;23;19982;-68
2022/01/12 19:19:07;;;;;;;;;;;;;;;3.56;62.63;99938.28;6157190;23;19945;-69
2022/01/12 19:21:35;;;;;;;;;;;;;;;3.49;65.16;99937.88;6157694;23;19952;-68
2022/01/12 19:24:03;;;;;;;;;;;;;;;3.49;67.10;99954.47;6157469;23;19956;-69
2022/01/12 19:26:39;;;;;;;;;;;;;;;3.41;73.94;99964.31;6167868;23;19951;-68
2022/01/12 19:29:07;;;;;;;;;;;;;;;3.28;77.71;99954.91;6181190;23;19968;-69
2022/01/12 19:31:34;;;;;;;;;;;;;;;3.22;79.52;99956.19;6187267;23;20369;-69
2022/01/12 19:34:02;;;;;;;;;;;;;;;3.19;79.21;99944.91;6186685;23;19954;-69
2022/01/12 19:36:30;;;;;;;;;;;;;;;3.28;55.30;99940.28;6186901;23;19941;-69
2022/01/12 19:38:57;;;;;;;;;;;;;;;3.47;42.50;99945.69;6161037;23;19959;-69
2022/01/12 19:41:24;;;;;;;;;;;;;;;3.76;39.02;99940.56;6185409;23;19957;-70
2022/01/12 19:43:52;;;;;;;;;;;;;;;4.05;34.88;99934.59;6185561;23;19959;-69
2022/01/12 19:46:20;;;;;;;;;;;;;;;4.13;35.56;99931.06;6186310;23;20413;-69
2022/01/12 19:48:48;;;;;;;;;;;;;;;4.20;34.24;99929.50;6187324;23;20328;-69
2022/01/12 19:51:34;;;;;;;;;;;;;;;4.26;34.09;99942.06;6185864;23;19972;-69
2022/01/12 19:54:10;;;;;;;;;;;;;;;4.29;34.11;99944.19;6185942;23;20298;-69
2022/01/12 19:56:39;;;;;;;;;;;;;;;4.47;32.78;99948.72;6197473;23;19940;-69
2022/01/12 19:59:09;;;;;;;;;;;;;;;4.55;31.78;99956.22;6186796;23;19945;-69
2022/01/12 20:01:38;;;;;;;;;;;;;;;4.61;32.54;99963.28;6185704;23;19945;-69
2022/01/12 20:04:10;;;;;;;;;;;;;;;4.65;32.18;99949.59;6186098;23;19949;-69
2022/01/12 20:06:38;;;;;;;;;;;;;;;4.52;33.85;99940.25;6185862;23;19951;-69
2022/01/12 20:09:11;;;;;;;;;;;;;;;4.55;31.45;99952.63;6186327;23;19946;-69
2022/01/12 20:11:38;;;;;;;;;;;;;;;4.61;31.36;99954.97;6185879;23;19974;-69
2022/01/12 20:14:17;;;;;;;;;;;;;;;4.64;31.23;99954.34;6197113;23;20296;-69